Time;durP1;ratioP1;P1;durP2;ratioP2;P2;SDS_P1;SDS_P2;PMS_P1;PMS_P2;Temp;Humidity;BMP_temperature;BMP_pressure;BME280_temperature;BME280_humidity;BME280_pressure;Samples;Min_cycle;Max_cycle;Signal;HPM_P1;HPM_P2
2022/04/10 00:01:13;;;;;;;5.30;1.93;;;3.40;97.30;;;;;;4983225;28;20185;-78
2022/04/10 00:03:39;;;;;;;4.20;1.63;;;3.40;97.30;;;;;;4973087;28;20567;-78
2022/04/10 00:06:04;;;;;;;2.97;1.80;;;3.40;97.30;;;;;;5000841;28;20271;-78
2022/04/10 00:08:30;;;;;;;1.70;1.60;;;3.40;97.30;;;;;;4992050;28;20229;-78
2022/04/10 00:10:55;;;;;;;2.77;1.80;;;3.40;97.30;;;;;;4992069;28;20267;-77
2022/04/10 00:13:21;;;;;;;3.37;1.77;;;3.40;97.30;;;;;;5009640;28;20186;-78
2022/04/10 00:15:47;;;;;;;1.90;1.60;;;3.40;97.30;;;;;;4992117;28;20468;-78
2022/04/10 00:18:12;;;;;;;7.13;2.00;;;3.40;97.30;;;;;;4993066;28;20247;-79
2022/04/10 00:20:38;;;;;;;5.10;1.80;;;3.40;97.30;;;;;;5010388;28;20193;-77
2022/04/10 00:23:04;;;;;;;2.80;2.00;;;3.30;97.30;;;;;;4992812;28;20286;-82
2022/04/10 00:25:29;;;;;;;7.37;1.97;;;3.30;97.30;;;;;;4993586;28;20215;-82
2022/04/10 00:27:55;;;;;;;3.03;1.80;;;3.30;97.30;;;;;;4994171;28;20204;-82
2022/04/10 00:30:20;;;;;;;6.70;2.10;;;3.20;97.30;;;;;;4991736;28;20227;-77
2022/04/10 00:32:46;;;;;;;3.63;1.83;;;3.20;97.30;;;;;;5009800;28;20185;-77
2022/04/10 00:35:13;;;;;;;2.67;2.00;;;3.10;97.30;;;;;;4991632;28;20698;-77
2022/04/10 00:37:39;;;;;;;3.40;2.17;;;3.10;97.30;;;;;;4991950;28;20188;-77
2022/04/10 00:40:06;;;;;;;6.60;1.80;;;3.10;97.30;;;;;;4992026;28;20501;-83
2022/04/10 00:42:32;;;;;;;2.80;1.70;;;3.10;97.30;;;;;;4992187;28;20902;-79
2022/04/10 00:44:58;;;;;;;6.90;2.17;;;3.00;97.30;;;;;;5009604;28;20496;-83
2022/04/10 00:47:24;;;;;;;5.47;2.10;;;3.00;97.30;;;;;;4993214;28;20549;-76
2022/04/10 00:49:49;;;;;;;8.73;2.07;;;3.00;97.30;;;;;;5009656;28;20728;-77
2022/04/10 00:52:15;;;;;;;7.93;2.20;;;3.00;97.30;;;;;;4991822;28;20177;-77
2022/04/10 00:54:41;;;;;;;1.90;1.90;;;2.90;97.30;;;;;;5009512;28;20245;-77
2022/04/10 00:57:06;;;;;;;3.60;1.77;;;2.90;97.30;;;;;;4991214;28;20436;-77
2022/04/10 00:59:32;;;;;;;3.00;1.83;;;2.90;97.30;;;;;;4991279;28;20181;-77
2022/04/10 01:01:58;;;;;;;2.13;1.87;;;2.90;97.30;;;;;;5009253;28;20272;-78
2022/04/10 01:04:25;;;;;;;3.60;1.63;;;2.90;97.30;;;;;;4992245;28;20236;-77
2022/04/10 01:06:52;;;;;;;2.13;1.60;;;2.80;97.30;;;;;;5010283;28;20459;-76
2022/04/10 01:09:17;;;;;;;3.73;1.77;;;2.80;97.30;;;;;;4995211;28;20572;-78
2022/04/10 01:11:43;;;;;;;7.33;2.13;;;2.80;97.30;;;;;;4989523;28;20519;-79
2022/04/10 01:14:09;;;;;;;2.87;1.80;;;2.70;97.30;;;;;;4993817;28;20223;-78
2022/04/10 01:16:36;;;;;;;3.63;1.70;;;2.70;97.30;;;;;;5013404;28;20185;-78
2022/04/10 01:19:03;;;;;;;4.70;2.30;;;2.70;97.30;;;;;;4997032;28;20431;-83
2022/04/10 01:21:32;;;;;;;5.33;2.00;;;2.70;97.30;;;;;;4996111;28;20477;-77
2022/04/10 01:23:58;;;;;;;2.10;1.90;;;2.70;97.30;;;;;;5012848;28;20478;-84
2022/04/10 01:26:26;;;;;;;4.27;1.80;;;2.70;97.30;;;;;;4996397;28;20972;-82
2022/04/10 01:29:05;;;;;;;2.13;1.80;;;2.70;97.30;;;;;;4999716;28;20419;-83
2022/04/10 01:31:32;;;;;;;3.50;2.20;;;2.70;97.30;;;;;;4996627;28;20415;-79
2022/04/10 01:34:00;;;;;;;2.17;1.97;;;2.70;97.30;;;;;;4980818;28;20860;-77
2022/04/10 01:36:27;;;;;;;1.60;1.60;;;2.70;97.30;;;;;;4975551;28;20517;-78
2022/04/10 01:38:55;;;;;;;3.90;2.07;;;2.70;97.30;;;;;;4985337;28;20437;-77
2022/04/10 01:41:21;;;;;;;7.27;2.03;;;2.70;97.30;;;;;;5012478;28;20481;-78
2022/04/10 01:43:49;;;;;;;2.90;2.03;;;2.70;97.30;;;;;;4994793;28;20495;-77
2022/04/10 01:46:15;;;;;;;3.20;2.00;;;2.70;97.30;;;;;;4994431;28;20466;-76
2022/04/10 01:48:41;;;;;;;9.03;1.97;;;2.70;97.30;;;;;;4997579;28;20774;-83
2022/04/10 01:51:08;;;;;;;2.43;1.97;;;2.80;97.30;;;;;;4996781;28;20447;-77
2022/04/10 01:53:34;;;;;;;3.23;2.03;;;2.80;97.30;;;;;;4994910;28;20455;-78
2022/04/10 01:56:03;;;;;;;2.60;1.90;;;2.80;97.30;;;;;;5012086;28;20470;-78
2022/04/10 01:58:30;;;;;;;5.07;2.00;;;2.80;97.30;;;;;;4995468;28;20551;-80
2022/04/10 02:00:56;;;;;;;5.40;1.97;;;2.80;97.30;;;;;;4996917;28;20983;-76
2022/04/10 02:03:21;;;;;;;4.23;2.03;;;2.90;97.30;;;;;;5012394;28;20479;-78
2022/04/10 02:05:47;;;;;;;6.30;2.10;;;2.80;97.30;;;;;;4994339;28;20246;-77
2022/04/10 02:08:13;;;;;;;9.40;1.90;;;2.90;97.30;;;;;;4994293;28;20272;-78
2022/04/10 02:10:39;;;;;;;3.07;1.80;;;2.90;97.30;;;;;;4990599;28;20180;-78
2022/04/10 02:13:07;;;;;;;5.33;1.77;;;2.90;97.30;;;;;;5011914;28;20252;-78
2022/04/10 02:15:38;;;;;;;3.03;1.90;;;2.80;97.30;;;;;;4994498;28;20441;-78
2022/04/10 02:18:04;;;;;;;8.53;2.00;;;2.80;97.30;;;;;;4993994;28;20930;-79
2022/04/10 02:20:29;;;;;;;5.97;2.13;;;2.80;97.30;;;;;;4994377;28;20435;-77
2022/04/10 02:22:55;;;;;;;5.03;2.20;;;2.80;97.30;;;;;;4994069;28;21011;-76
2022/04/10 02:25:21;;;;;;;3.87;1.87;;;2.70;97.30;;;;;;4993717;28;20201;-78
2022/04/10 02:27:46;;;;;;;4.63;2.10;;;2.70;97.30;;;;;;5011581;28;20189;-78
2022/04/10 02:30:12;;;;;;;4.07;2.10;;;2.70;97.30;;;;;;4982032;28;20209;-84
2022/04/10 02:32:39;;;;;;;3.03;1.97;;;2.60;97.30;;;;;;4992504;28;20192;-77
2022/04/10 02:35:05;;;;;;;6.00;2.27;;;2.60;97.30;;;;;;4990292;28;20456;-77
2022/04/10 02:37:31;;;;;;;8.90;2.53;;;2.60;97.30;;;;;;5003388;28;20890;-77
2022/04/10 02:39:56;;;;;;;7.80;2.40;;;2.60;97.30;;;;;;4993468;28;20181;-83
2022/04/10 02:42:22;;;;;;;11.67;2.53;;;2.50;97.30;;;;;;4994455;28;20189;-79
2022/04/10 02:44:47;;;;;;;8.93;3.63;;;2.50;97.30;;;;;;4993864;28;20201;-74
2022/04/10 02:47:13;;;;;;;7.17;2.90;;;2.50;97.30;;;;;;5011700;28;20682;-75
2022/04/10 02:49:39;;;;;;;6.47;2.80;;;2.40;97.30;;;;;;5011959;28;20181;-75
2022/04/10 02:52:04;;;;;;;11.27;2.97;;;2.40;97.30;;;;;;5011116;28;20550;-77
2022/04/10 02:54:30;;;;;;;6.03;2.20;;;2.40;97.30;;;;;;4980687;28;20217;-78
2022/04/10 02:56:56;;;;;;;10.20;2.60;;;2.40;97.30;;;;;;4978541;28;20578;-76
2022/04/10 02:59:21;;;;;;;11.77;3.57;;;2.40;97.30;;;;;;5011032;28;20436;-79
2022/04/10 03:01:50;;;;;;;6.97;2.97;;;2.40;97.30;;;;;;4993219;28;20188;-77
2022/04/10 03:04:16;;;;;;;2.70;2.03;;;2.40;97.30;;;;;;4993146;28;20208;-79
2022/04/10 03:06:41;;;;;;;7.60;2.87;;;2.40;97.30;;;;;;5010697;28;20476;-79
2022/04/10 03:09:07;;;;;;;8.57;2.80;;;2.40;97.30;;;;;;5010852;28;20513;-79
2022/04/10 03:11:33;;;;;;;4.07;2.30;;;2.40;97.30;;;;;;4993043;28;20230;-78
2022/04/10 03:13:59;;;;;;;5.40;2.50;;;2.40;97.30;;;;;;4993127;28;20444;-79
2022/04/10 03:16:24;;;;;;;4.83;2.50;;;2.40;97.30;;;;;;5010969;28;20643;-78
2022/04/10 03:18:51;;;;;;;3.77;2.40;;;2.40;97.30;;;;;;4993255;28;20180;-79
2022/04/10 03:21:17;;;;;;;4.30;2.60;;;2.40;97.30;;;;;;4993323;28;20196;-79
2022/04/10 03:23:43;;;;;;;3.83;2.30;;;2.40;97.30;;;;;;4992963;28;20574;-79
2022/04/10 03:26:09;;;;;;;5.70;2.07;;;2.50;97.30;;;;;;4995064;28;20609;-78
2022/04/10 03:28:34;;;;;;;4.20;2.33;;;2.50;97.30;;;;;;5012326;28;20178;-82
2022/04/10 03:31:00;;;;;;;4.23;2.00;;;2.60;97.30;;;;;;5013087;28;20266;-82
2022/04/10 03:33:26;;;;;;;7.57;2.67;;;2.60;97.30;;;;;;5011574;28;20275;-78
2022/04/10 03:35:53;;;;;;;2.60;2.20;;;2.60;97.30;;;;;;4992993;28;20185;-79
2022/04/10 03:38:19;;;;;;;5.23;1.93;;;2.70;97.30;;;;;;4992446;28;20189;-77
2022/04/10 03:40:45;;;;;;;8.43;2.87;;;2.70;97.30;;;;;;4992523;28;20805;-77
2022/04/10 03:43:11;;;;;;;4.90;2.07;;;2.70;97.30;;;;;;4993036;28;20185;-82
2022/04/10 03:45:38;;;;;;;12.33;4.50;;;2.70;97.30;;;;;;5012497;28;20189;-81
2022/04/10 03:48:07;;;;;;;4.33;2.40;;;2.70;97.30;;;;;;4994904;28;20424;-81
2022/04/10 03:50:34;;;;;;;6.53;2.40;;;2.70;97.30;;;;;;4994342;28;20433;-81
2022/04/10 03:53:04;;;;;;;8.03;3.17;;;2.80;97.30;;;;;;5012538;28;20795;-81
2022/04/10 03:55:30;;;;;;;5.33;2.70;;;2.80;97.30;;;;;;4995149;28;20502;-81
2022/04/10 03:57:56;;;;;;;2.73;1.90;;;2.80;97.30;;;;;;4995452;28;20416;-81
2022/04/10 04:00:22;;;;;;;8.40;2.57;;;2.80;97.30;;;;;;4995232;28;20485;-80
2022/04/10 04:02:48;;;;;;;4.17;2.17;;;2.80;97.30;;;;;;5012787;28;20902;-81
2022/04/10 04:05:14;;;;;;;4.53;2.27;;;2.80;97.30;;;;;;4976956;28;20445;-79
2022/04/10 04:07:40;;;;;;;8.63;2.70;;;2.90;97.30;;;;;;4975111;28;20225;-77
2022/04/10 04:10:07;;;;;;;9.73;3.00;;;2.90;97.30;;;;;;4987719;28;20421;-83
2022/04/10 04:12:36;;;;;;;3.37;2.50;;;2.90;97.30;;;;;;4975740;28;20189;-79
2022/04/10 04:15:03;;;;;;;2.90;1.87;;;2.90;97.30;;;;;;4993588;28;20498;-83
2022/04/10 04:17:29;;;;;;;2.70;2.10;;;2.90;97.30;;;;;;4996276;28;20452;-82
2022/04/10 04:19:55;;;;;;;5.43;2.87;;;2.90;97.30;;;;;;4995621;28;21030;-77
2022/04/10 04:22:21;;;;;;;5.10;2.60;;;2.80;97.30;;;;;;4992227;28;20481;-76
2022/04/10 04:24:47;;;;;;;13.43;2.80;;;2.80;97.30;;;;;;5010097;28;20484;-77
2022/04/10 04:27:13;;;;;;;6.10;2.30;;;2.80;97.30;;;;;;4992264;28;20208;-82
2022/04/10 04:29:39;;;;;;;5.30;1.90;;;2.80;97.30;;;;;;4993400;28;20420;-78
2022/04/10 04:32:05;;;;;;;3.10;2.47;;;2.70;97.30;;;;;;4992194;28;20470;-76
2022/04/10 04:34:31;;;;;;;4.60;2.33;;;2.70;97.30;;;;;;5012468;28;20278;-81
2022/04/10 04:36:56;;;;;;;8.03;2.47;;;2.70;97.30;;;;;;4991931;28;20432;-77
2022/04/10 04:39:22;;;;;;;9.50;2.50;;;2.70;97.30;;;;;;4991808;28;20185;-78
2022/04/10 04:41:47;;;;;;;4.73;2.67;;;2.70;97.30;;;;;;5013482;28;20255;-79
2022/04/10 04:44:13;;;;;;;7.90;2.83;;;2.70;97.30;;;;;;4996717;28;20674;-77
2022/04/10 04:46:39;;;;;;;10.90;2.90;;;2.70;97.30;;;;;;5014120;28;20200;-79
2022/04/10 04:49:04;;;;;;;5.83;2.97;;;2.70;97.30;;;;;;4996067;28;20271;-78
2022/04/10 04:51:34;;;;;;;4.70;2.57;;;2.70;97.30;;;;;;4996456;28;20185;-84
2022/04/10 04:54:01;;;;;;;8.70;2.57;;;2.70;97.30;;;;;;4996898;28;20200;-82
2022/04/10 04:56:26;;;;;;;6.10;2.90;;;2.70;97.30;;;;;;4998899;28;20436;-76
2022/04/10 04:58:52;;;;;;;7.43;2.70;;;2.70;97.30;;;;;;4996132;28;20474;-79
2022/04/10 05:01:18;;;;;;;12.73;2.97;;;2.70;97.30;;;;;;4997035;28;20185;-79
2022/04/10 05:03:43;;;;;;;5.80;3.00;;;2.70;97.30;;;;;;4996948;28;20568;-78
2022/04/10 05:06:09;;;;;;;6.43;2.67;;;2.70;97.30;;;;;;5013278;28;20551;-78
2022/04/10 05:08:34;;;;;;;5.50;2.43;;;2.70;97.30;;;;;;4995226;28;20643;-77
2022/04/10 05:11:00;;;;;;;8.53;3.13;;;2.70;97.30;;;;;;5013361;28;20184;-77
2022/04/10 05:13:27;;;;;;;6.77;2.70;;;2.80;97.30;;;;;;4995174;28;20193;-76
2022/04/10 05:15:52;;;;;;;12.80;3.50;;;2.80;97.30;;;;;;4995681;28;20212;-77
2022/04/10 05:18:19;;;;;;;5.30;2.77;;;2.80;97.30;;;;;;4995653;28;20443;-79
2022/04/10 05:20:47;;;;;;;22.73;2.80;;;2.80;97.30;;;;;;4996609;28;20181;-78
2022/04/10 05:23:18;;;;;;;10.30;3.00;;;2.80;97.30;;;;;;4996373;28;20472;-75
2022/04/10 05:25:44;;;;;;;2.73;2.07;;;2.90;97.30;;;;;;4995230;28;20467;-76
2022/04/10 05:28:10;;;;;;;5.27;2.80;;;2.90;97.30;;;;;;4994445;28;20442;-76
2022/04/10 05:30:35;;;;;;;9.23;2.43;;;3.00;97.30;;;;;;4995341;28;20428;-76
2022/04/10 05:33:01;;;;;;;6.33;2.40;;;3.00;97.30;;;;;;4995722;28;20420;-76
2022/04/10 05:35:26;;;;;;;8.13;2.80;;;3.10;97.30;;;;;;4995902;28;20212;-77
2022/04/10 05:37:52;;;;;;;6.03;2.60;;;3.20;97.30;;;;;;4995445;28;20177;-76
2022/04/10 05:40:18;;;;;;;3.70;2.50;;;3.20;97.30;;;;;;5011692;28;20231;-77
2022/04/10 05:42:45;;;;;;;8.20;2.60;;;3.30;97.30;;;;;;4993886;28;20181;-76
2022/04/10 05:45:11;;;;;;;6.40;2.43;;;3.40;97.30;;;;;;4994261;28;20197;-77
2022/04/10 05:47:38;;;;;;;3.37;2.20;;;3.40;97.30;;;;;;4993744;28;20467;-76
2022/04/10 05:50:05;;;;;;;4.17;2.53;;;3.50;97.30;;;;;;4993449;28;20420;-76
2022/04/10 05:52:30;;;;;;;3.73;2.40;;;3.60;97.30;;;;;;4993063;28;20537;-76
2022/04/10 05:54:59;;;;;;;5.00;2.70;;;3.70;97.30;;;;;;5012818;28;20494;-76
2022/04/10 05:57:25;;;;;;;10.20;2.43;;;3.70;97.30;;;;;;4995132;28;20681;-77
2022/04/10 05:59:51;;;;;;;2.23;1.90;;;3.80;97.30;;;;;;4994505;28;20436;-81
2022/04/10 06:02:16;;;;;;;8.03;3.13;;;3.80;97.30;;;;;;4982029;28;20460;-82
2022/04/10 06:04:42;;;;;;;4.93;2.47;;;3.80;97.30;;;;;;4997687;28;20197;-81
2022/04/10 06:07:08;;;;;;;4.00;3.37;;;3.80;97.30;;;;;;4993967;28;20293;-81
2022/04/10 06:09:34;;;;;;;3.77;2.17;;;3.90;97.30;;;;;;5006379;28;20185;-81
2022/04/10 06:12:00;;;;;;;6.13;2.67;;;3.90;97.30;;;;;;4994851;28;20188;-81
2022/04/10 06:14:26;;;;;;;7.83;2.80;;;3.90;97.30;;;;;;4995599;28;20584;-81
2022/04/10 06:16:51;;;;;;;7.90;3.07;;;4.00;97.30;;;;;;4984483;28;20190;-82
2022/04/10 06:19:18;;;;;;;7.90;2.50;;;4.00;97.30;;;;;;5007308;28;20268;-77
2022/04/10 06:21:44;;;;;;;5.50;2.60;;;4.00;97.30;;;;;;4989655;28;20648;-76
2022/04/10 06:24:09;;;;;;;5.97;3.13;;;4.00;97.30;;;;;;4990275;28;20530;-76
2022/04/10 06:26:35;;;;;;;6.07;3.00;;;4.10;97.30;;;;;;4993682;28;20615;-76
2022/04/10 06:29:01;;;;;;;2.80;2.30;;;4.10;97.30;;;;;;4984324;28;20181;-78
2022/04/10 06:31:26;;;;;;;9.67;2.60;;;4.30;97.30;;;;;;4988390;28;20193;-78
2022/04/10 06:33:54;;;;;;;5.17;2.63;;;4.40;97.30;;;;;;4990412;28;20220;-74
2022/04/10 06:36:19;;;;;;;14.00;3.30;;;4.40;97.30;;;;;;4991943;28;20541;-78
2022/04/10 06:38:45;;;;;;;6.80;3.30;;;4.50;97.30;;;;;;4986777;28;20432;-76
2022/04/10 06:41:11;;;;;;;13.00;4.37;;;4.60;97.30;;;;;;4991476;28;20191;-79
2022/04/10 06:43:36;;;;;;;11.10;4.30;;;4.80;97.30;;;;;;4991731;28;20217;-77
2022/04/10 06:46:04;;;;;;;17.87;5.30;;;4.90;97.30;;;;;;4995855;28;20234;-77
2022/04/10 06:48:30;;;;;;;12.10;5.63;;;4.90;97.30;;;;;;4989658;28;20216;-77
2022/04/10 06:50:56;;;;;;;8.67;4.03;;;4.90;97.30;;;;;;4992000;28;20863;-78
2022/04/10 06:53:22;;;;;;;12.70;2.60;;;4.90;97.30;;;;;;4990468;28;20181;-77
2022/04/10 06:55:47;;;;;;;10.53;3.17;;;4.90;97.30;;;;;;4992982;28;20952;-77
2022/04/10 06:58:13;;;;;;;6.60;2.43;;;4.90;97.30;;;;;;4990870;28;20331;-77
2022/04/10 07:00:40;;;;;;;16.00;4.33;;;5.00;97.30;;;;;;5004439;28;20173;-78
2022/04/10 07:03:06;;;;;;;10.80;3.33;;;4.90;97.30;;;;;;4992028;28;20189;-78
2022/04/10 07:05:31;;;;;;;10.60;6.23;;;5.00;97.30;;;;;;4987531;28;20522;-79
2022/04/10 07:07:57;;;;;;;19.70;3.93;;;5.10;97.30;;;;;;4989276;28;20174;-79
2022/04/10 07:10:23;;;;;;;10.50;3.90;;;5.10;97.30;;;;;;4989793;28;20182;-77
2022/04/10 07:12:48;;;;;;;7.50;3.23;;;5.20;97.30;;;;;;4973556;28;20177;-78
2022/04/10 07:15:14;;;;;;;8.73;3.87;;;5.20;97.30;;;;;;4989632;28;20351;-77
2022/04/10 07:17:39;;;;;;;5.60;2.70;;;5.20;97.30;;;;;;4973725;28;20193;-77
2022/04/10 07:20:05;;;;;;;4.43;2.60;;;5.30;97.30;;;;;;4989664;28;20194;-77
2022/04/10 07:25:16;;;;;;;5.50;2.67;;;5.40;97.30;;;;;;5005499;28;20450;-79
2022/04/10 07:27:42;;;;;;;5.97;2.20;;;5.50;97.30;;;;;;5007984;28;20455;-80
2022/04/10 07:30:07;;;;;;;4.93;2.00;;;5.50;97.20;;;;;;4992899;28;20176;-78
2022/04/10 07:32:33;;;;;;;9.30;2.73;;;5.50;97.10;;;;;;4993176;28;20180;-78
2022/04/10 07:35:02;;;;;;;9.23;2.90;;;5.60;97.20;;;;;;4992252;28;20432;-78
2022/04/10 07:37:28;;;;;;;8.20;2.90;;;5.70;96.90;;;;;;4992736;28;20185;-78
2022/04/10 07:39:54;;;;;;;6.97;2.13;;;5.80;96.10;;;;;;4993271;28;20431;-81
2022/04/10 07:42:20;;;;;;;5.03;2.47;;;5.90;95.60;;;;;;4989601;28;20185;-81
2022/04/10 07:44:45;;;;;;;7.30;2.93;;;5.80;95.50;;;;;;4989367;28;20448;-81
2022/04/10 07:47:26;;;;;;;6.03;2.70;;;5.70;94.60;;;;;;4990729;28;20209;-82
2022/04/10 07:49:53;;;;;;;5.60;2.87;;;5.60;93.50;;;;;;4981789;28;20180;-79
2022/04/10 07:52:20;;;;;;;8.07;2.20;;;5.60;93.60;;;;;;4989223;28;20704;-79
2022/04/10 07:54:46;;;;;;;8.73;3.00;;;5.60;93.80;;;;;;4994975;28;20432;-79
2022/04/10 07:57:12;;;;;;;9.13;2.00;;;5.60;93.80;;;;;;4995764;28;20460;-78
2022/04/10 07:59:37;;;;;;;11.10;2.40;;;5.50;93.60;;;;;;4995734;28;20535;-79
2022/04/10 08:02:03;;;;;;;5.83;2.73;;;5.60;94.00;;;;;;4997680;28;20172;-79
2022/04/10 08:04:29;;;;;;;13.53;3.17;;;5.60;94.20;;;;;;4997340;28;20208;-79
2022/04/10 08:06:54;;;;;;;10.37;3.47;;;5.50;94.50;;;;;;5014611;28;20681;-79
2022/04/10 08:09:20;;;;;;;9.37;2.63;;;5.50;94.40;;;;;;4996104;28;20246;-79
2022/04/10 08:11:46;;;;;;;6.90;3.03;;;5.50;94.80;;;;;;5005217;28;20273;-79
2022/04/10 08:14:11;;;;;;;6.10;2.33;;;5.40;94.80;;;;;;5002024;28;20260;-78
2022/04/10 08:16:37;;;;;;;5.70;2.80;;;5.40;95.30;;;;;;4991037;28;20530;-79
2022/04/10 08:19:03;;;;;;;9.87;3.17;;;5.30;96.10;;;;;;4989647;28;20354;-81
2022/04/10 08:21:28;;;;;;;6.13;2.60;;;5.30;96.90;;;;;;5003237;28;20188;-81
2022/04/10 08:23:54;;;;;;;7.43;3.10;;;5.30;97.30;;;;;;4992522;28;20251;-80
2022/04/10 08:26:19;;;;;;;7.70;3.00;;;5.30;97.30;;;;;;5000071;28;20201;-80
2022/04/10 08:28:45;;;;;;;8.60;3.07;;;5.40;97.30;;;;;;4998254;28;20231;-82
2022/04/10 08:31:10;;;;;;;6.20;2.90;;;5.40;97.30;;;;;;4996865;28;20190;-80
2022/04/10 08:33:36;;;;;;;12.30;3.40;;;5.40;97.30;;;;;;4997530;28;20193;-80
2022/04/10 08:36:02;;;;;;;7.17;2.47;;;5.40;97.30;;;;;;5015059;28;20187;-80
2022/04/10 08:38:27;;;;;;;8.87;4.20;;;5.40;97.30;;;;;;4997696;28;20211;-81
2022/04/10 08:41:00;;;;;;;8.50;3.23;;;5.50;97.30;;;;;;4996920;28;20229;-79
2022/04/10 08:43:27;;;;;;;6.43;2.53;;;5.60;97.30;;;;;;4998141;28;20182;-81
2022/04/10 08:45:55;;;;;;;7.87;3.23;;;5.90;97.30;;;;;;4999452;28;20466;-80
2022/04/10 08:48:24;;;;;;;9.33;3.77;;;6.30;97.30;;;;;;4995903;28;20432;-80
2022/04/10 08:50:51;;;;;;;6.63;2.57;;;6.40;96.20;;;;;;5015263;28;20423;-80
2022/04/10 08:53:16;;;;;;;9.23;2.90;;;6.30;96.30;;;;;;4997319;28;20554;-80
2022/04/10 08:55:42;;;;;;;7.27;2.83;;;6.30;96.10;;;;;;4996224;28;20431;-79
2022/04/10 08:58:08;;;;;;;9.43;3.10;;;6.30;96.90;;;;;;5003589;28;20548;-80
2022/04/10 09:00:35;;;;;;;5.63;2.40;;;6.40;96.80;;;;;;5008027;28;20177;-81
2022/04/10 09:03:00;;;;;;;6.60;2.17;;;6.30;95.40;;;;;;4998106;28;20173;-81
2022/04/10 09:05:26;;;;;;;9.47;2.40;;;6.30;93.90;;;;;;5015961;28;20467;-79
2022/04/10 09:08:06;;;;;;;11.13;2.40;;;6.40;94.10;;;;;;4998869;28;20213;-81
2022/04/10 09:10:54;;;;;;;13.73;3.50;;;6.50;94.70;;;;;;4997898;28;20177;-81
2022/04/10 09:13:39;;;;;;;7.53;3.07;;;6.50;93.90;;;;;;5016180;28;20400;-81
2022/04/10 09:16:12;;;;;;;6.67;3.23;;;6.40;93.60;;;;;;4998191;28;20458;-81
2022/04/10 09:18:48;;;;;;;10.30;2.77;;;6.50;94.00;;;;;;4998361;28;20494;-81
2022/04/10 09:21:15;;;;;;;14.63;2.73;;;6.60;93.50;;;;;;5015885;28;20408;-81
2022/04/10 09:23:43;;;;;;;8.53;2.77;;;6.90;93.10;;;;;;4978947;28;20546;-80
2022/04/10 09:26:08;;;;;;;5.83;2.70;;;7.20;93.30;;;;;;4995616;28;20512;-80
2022/04/10 09:28:46;;;;;;;11.33;2.50;;;7.30;92.60;;;;;;4981407;28;20451;-80
2022/04/10 09:31:29;;;;;;;19.77;3.50;;;7.20;90.90;;;;;;4980656;28;20424;-81
2022/04/10 09:33:59;;;;;;;6.90;3.37;;;6.90;91.70;;;;;;5017764;28;20432;-80
2022/04/10 09:36:32;;;;;;;15.53;3.13;;;6.80;92.90;;;;;;5001024;28;20431;-81
2022/04/10 09:38:58;;;;;;;11.83;2.93;;;6.80;93.30;;;;;;5000618;28;20971;-81
2022/04/10 09:41:23;;;;;;;5.27;2.70;;;6.70;93.30;;;;;;5001099;28;20427;-83
2022/04/10 09:43:49;;;;;;;5.37;2.73;;;6.70;93.70;;;;;;4999172;28;20980;-81
2022/04/10 09:46:15;;;;;;;10.40;3.03;;;6.90;94.10;;;;;;4998762;28;20209;-81
2022/04/10 09:48:41;;;;;;;4.90;2.93;;;7.20;93.70;;;;;;4999059;28;20408;-81
2022/04/10 09:51:09;;;;;;;12.10;2.57;;;7.50;91.60;;;;;;4999295;28;20205;-81
2022/04/10 09:53:35;;;;;;;11.00;2.37;;;7.50;90.00;;;;;;5000499;28;20201;-81
2022/04/10 09:56:03;;;;;;;15.00;2.70;;;7.40;90.10;;;;;;4999839;28;21096;-81
2022/04/10 09:58:29;;;;;;;6.37;3.17;;;7.30;89.90;;;;;;4998648;28;20267;-81
2022/04/10 10:00:56;;;;;;;7.40;2.70;;;7.20;90.60;;;;;;4998138;28;20506;-82
2022/04/10 10:03:26;;;;;;;5.43;2.20;;;6.80;92.80;;;;;;4998278;28;20723;-81
2022/04/10 10:05:54;;;;;;;5.00;2.60;;;6.70;94.90;;;;;;4999402;28;20421;-81
2022/04/10 10:08:20;;;;;;;19.17;3.30;;;6.50;94.70;;;;;;4999400;28;20487;-81
2022/04/10 10:10:46;;;;;;;7.83;2.20;;;6.60;95.80;;;;;;5000367;28;20415;-81
2022/04/10 10:13:13;;;;;;;5.83;2.70;;;7.00;96.50;;;;;;4999596;28;20412;-80
2022/04/10 10:15:40;;;;;;;3.90;2.53;;;7.30;96.40;;;;;;4999907;28;20458;-81
2022/04/10 10:18:08;;;;;;;5.17;2.30;;;7.70;95.40;;;;;;4998847;28;20787;-81
2022/04/10 10:20:36;;;;;;;7.87;2.20;;;7.90;94.40;;;;;;5021996;28;20416;-81
2022/04/10 10:23:04;;;;;;;8.93;2.03;;;8.00;91.70;;;;;;5003930;28;20468;-81
2022/04/10 10:25:35;;;;;;;5.00;2.03;;;8.00;91.40;;;;;;5026795;28;20940;-83
2022/04/10 10:28:38;;;;;;;7.60;2.40;;;8.00;90.30;;;;;;4997877;28;20516;-81
2022/04/10 10:31:25;;;;;;;6.20;3.30;;;8.10;90.00;;;;;;5018829;28;20403;-81
2022/04/10 10:34:11;;;;;;;12.40;3.20;;;8.30;89.40;;;;;;5006887;28;20467;-78
2022/04/10 10:36:37;;;;;;;3.87;1.90;;;8.40;87.90;;;;;;4995424;28;20424;-80
2022/04/10 10:39:08;;;;;;;16.20;2.87;;;8.40;87.20;;;;;;4993544;28;20937;-78
2022/04/10 10:41:36;;;;;;;3.63;2.10;;;8.40;87.10;;;;;;4996538;28;20428;-79
2022/04/10 10:44:25;;;;;;;6.67;2.70;;;8.60;87.10;;;;;;4987253;28;20475;-80
2022/04/10 10:47:02;;;;;;;3.53;2.07;;;8.70;85.40;;;;;;4945029;28;21104;-78
2022/04/10 10:49:43;;;;;;;3.80;2.87;;;8.50;84.60;;;;;;4995609;28;20422;-78
2022/04/10 10:52:10;;;;;;;7.23;2.33;;;8.40;84.30;;;;;;4990321;28;20488;-78
2022/04/10 10:54:42;;;;;;;4.77;3.13;;;8.30;84.70;;;;;;4984086;28;20518;-82
2022/04/10 10:57:27;;;;;;;5.50;2.57;;;8.20;85.00;;;;;;4988567;28;20428;-80
2022/04/10 11:00:34;;;;;;;6.53;1.90;;;8.10;85.20;;;;;;5003358;28;20412;-82
2022/04/10 11:02:59;;;;;;;2.37;2.00;;;8.00;85.00;;;;;;4964191;28;20787;-79
2022/04/10 11:05:25;;;;;;;4.90;1.53;;;8.30;84.90;;;;;;4989966;28;20432;-78
2022/04/10 11:08:07;;;;;;;4.57;2.53;;;8.70;82.50;;;;;;4994977;28;20208;-78
2022/04/10 11:10:50;;;;;;;5.13;2.07;;;8.80;84.60;;;;;;4996538;28;20541;-79
2022/04/10 11:13:18;;;;;;;3.57;1.60;;;9.00;84.60;;;;;;4997725;28;20482;-79
2022/04/10 11:15:52;;;;;;;4.33;2.30;;;8.70;84.40;;;;;;4996498;28;20421;-78
2022/04/10 11:18:25;;;;;;;7.93;3.57;;;8.70;85.60;;;;;;4996712;28;20917;-78
2022/04/10 11:20:55;;;;;;;6.83;2.87;;;8.80;85.70;;;;;;4995772;28;20416;-78
2022/04/10 11:23:21;;;;;;;6.50;3.13;;;8.90;84.60;;;;;;4995849;28;21004;-78
2022/04/10 11:25:52;;;;;;;36.53;14.70;;;8.90;84.20;;;;;;4992386;28;20416;-77
2022/04/10 11:28:18;;;;;;;9.40;4.97;;;8.90;84.00;;;;;;4993398;28;20420;-80
2022/04/10 11:30:46;;;;;;;4.80;2.87;;;8.90;83.90;;;;;;4983598;28;20423;-77
2022/04/10 11:33:13;;;;;;;58.23;26.60;;;8.90;83.70;;;;;;4988801;28;20174;-79
2022/04/10 11:35:40;;;;;;;15.73;7.40;;;8.90;82.10;;;;;;4993705;28;20946;-79
2022/04/10 11:38:07;;;;;;;10.63;4.77;;;8.80;80.30;;;;;;4991039;28;20507;-77
2022/04/10 11:40:34;;;;;;;12.87;4.57;;;8.70;81.50;;;;;;4993356;28;21054;-79
2022/04/10 11:43:03;;;;;;;22.23;9.20;;;8.70;82.80;;;;;;4990971;28;20431;-78
2022/04/10 11:45:31;;;;;;;8.47;3.10;;;9.00;82.70;;;;;;4979828;28;20785;-78
2022/04/10 11:47:57;;;;;;;8.67;3.10;;;9.20;82.20;;;;;;4988631;28;20466;-79
2022/04/10 11:50:25;;;;;;;9.70;3.77;;;9.50;82.20;;;;;;4993396;28;21114;-79
2022/04/10 11:53:03;;;;;;;4.13;2.67;;;9.90;82.90;;;;;;4988332;28;20534;-78
2022/04/10 11:55:40;;;;;;;4.30;2.27;;;10.40;82.50;;;;;;4991945;28;20445;-80
2022/04/10 11:58:16;;;;;;;5.57;2.60;;;10.50;80.70;;;;;;4984964;28;20471;-78
2022/04/10 12:00:56;;;;;;;3.70;2.00;;;10.60;79.70;;;;;;4974272;28;20413;-81
2022/04/10 12:03:30;;;;;;;3.57;1.60;;;10.80;78.80;;;;;;4975712;28;20516;-81
2022/04/10 12:05:57;;;;;;;9.20;2.07;;;10.70;78.70;;;;;;4981318;28;20933;-77
2022/04/10 12:08:24;;;;;;;3.77;1.70;;;10.50;78.80;;;;;;4983123;28;20417;-78
2022/04/10 12:10:54;;;;;;;6.83;2.23;;;10.80;79.10;;;;;;4981991;28;20790;-77
2022/04/10 12:13:21;;;;;;;8.80;1.90;;;10.90;78.70;;;;;;4990509;28;20906;-79
2022/04/10 12:16:01;;;;;;;3.30;1.63;;;11.00;78.00;;;;;;4986951;28;20720;-81
2022/04/10 12:18:27;;;;;;;4.13;1.90;;;11.10;77.50;;;;;;4986658;28;20946;-80
2022/04/10 12:21:02;;;;;;;3.90;2.47;;;11.10;78.70;;;;;;5006476;28;20455;-77
2022/04/10 12:23:28;;;;;;;3.63;1.80;;;11.00;77.90;;;;;;5008873;28;20675;-79
2022/04/10 12:25:58;;;;;;;2.50;1.93;;;11.00;78.30;;;;;;4991330;28;20443;-79
2022/04/10 12:28:25;;;;;;;5.93;2.30;;;11.20;77.20;;;;;;4991622;28;20264;-80
2022/04/10 12:30:51;;;;;;;3.30;1.80;;;10.80;77.10;;;;;;4992116;28;20793;-79
2022/04/10 12:33:18;;;;;;;3.23;2.20;;;10.40;76.90;;;;;;4995254;28;20421;-79
2022/04/10 12:35:44;;;;;;;4.00;2.50;;;10.00;78.30;;;;;;5000047;28;20418;-80
2022/04/10 12:38:16;;;;;;;6.53;2.73;;;9.60;79.90;;;;;;5000184;28;20407;-80
2022/04/10 12:40:42;;;;;;;2.97;1.73;;;9.20;82.70;;;;;;5014017;28;20424;-80
2022/04/10 12:43:09;;;;;;;5.40;1.70;;;8.60;88.00;;;;;;5002375;28;20851;-81
2022/04/10 12:45:38;;;;;;;2.17;1.43;;;7.90;92.70;;;;;;4993892;28;20177;-81
2022/04/10 12:48:24;;;;;;;2.53;1.30;;;7.40;94.40;;;;;;5011929;28;20462;-79
2022/04/10 12:51:09;;;;;;;3.07;1.43;;;7.10;94.90;;;;;;4994366;28;20470;-82
2022/04/10 12:53:35;;;;;;;2.00;1.60;;;6.90;96.30;;;;;;4995287;28;20933;-80
2022/04/10 12:56:01;;;;;;;3.00;1.33;;;7.00;96.70;;;;;;4995009;28;20515;-80
2022/04/10 12:58:31;;;;;;;3.97;1.50;;;7.20;94.10;;;;;;5014587;28;20447;-81
2022/04/10 13:00:57;;;;;;;1.40;1.10;;;7.60;94.00;;;;;;4998670;28;20424;-81